Aeroporto :
LOGIN :

Iscrizione | Disclaimer

   EN    FR    IT 

 










Sommario :    VFR   VFR Marginale   IFR   IFR Intensivo   IFR Molto Intensivo
Visibilità : 
Base nubi : 
>= 8 km
>= 3000ft
5 / 8 km
1000 / 3000 ft
1500m / 5 km
500 / 1000 ft
800 / 1500m
200 / 500 ft
< 800m
< 200 ft
Simboli :   Temporali  Nebbia  Neve Forte  Precipitazioni Forti  Vento > 20 kt
SIGMETs :   Varie  Temporali  Ghiacco  Turbolenza  Onda orograficha  Ceneri Vulcaniche






- Altitudine del aeroporto : 39 ft
- Codice IATA : TRS


LIPQ - Friuli Venezia Giulia Apt. Trieste

ULTIMO METAR :
  • 191850Z 11006KT CAVOK 03/M03 Q1032

METARs OBSOLETI :
  • 191820Z VRB02KT CAVOK 05/M03 Q1032
  • 191750Z 03004KT CAVOK 07/M03 Q1032
  • 191720Z VRB02KT CAVOK 05/M01 Q1031
  • 191650Z VRB02KT CAVOK 07/M00 Q1031
  • 191620Z VRB02KT CAVOK 09/01 Q1030
  • 191550Z 19004KT 150V220 CAVOK 09/00 Q1030

TAF TAF LIPQ
Valido dal 19 a 18 ore il 20 a 18 ore UTC


191700Z 1918/2018 VRB05KT 9999 FEW040
BECMG 2007/2009 09013KT



MetMap, La meteo Aeronautica in un colpo d'occhio ! - Copyright ORBIFLY Dicembre 2007 - Disclaimer

ORBIFLY MET'MAP TEAM :

Programmazione e sviluppo : Alexandra Zaïnal
Concezione : Baudouin d'Aumeries
Aiuto per la programmazione : Marc-Olivier Méhu
Supporto tecnico e logistico : Manuel Goepfert
Aiuto per la traduzione : Arnaldo La Scala

Contatto : metmap@orbifly.com




FONTI E CREDITI :

   NOAA